Scotland, TX

4:52 AM CDT on April 21, 2015 (GMT -0500)
Sheppard Air Force Base-Wichita Falls Municipal | | Change Station
CLOSE
Current Station
Airport
Location: Wichita Falls,
Elevation: 1030 ft
Nearby Weather Stations

Elev 1030 ft 33.98 °N, 98.49 °W | Updated 1 hour ago

Mostly Cloudy
Mostly Cloudy
55 °F
Feels Like 55 °F
N
12
Wind Variable Wind from South

Today
High -- | Low -- °F
--% Chance of Precip.
Yesterday
High -- | Low -- °F
Precip. -- in
6:56 AM 8:09 PM
Waxing Crescent, 9% visible
Pressure 29.95 in
Visibility 10.0 miles
Clouds Mostly Cloudy 9500 ft
Dew Point 42 °F
Humidity 62%
Rainfall 0.00 in
Snow Depth Not available.
UV 0 out of 12
Pollen 9.60 out of 12
Air Quality Not available.
Flu Activity Local Activity
METAR KSPS 210852Z AUTO 18010KT 10SM BKN095 13/06 A2997 RMK AO2 SLP141 T01280056 58007

More Conditions Fewer Conditions

Pressure 29.95 in
Visibility 10.0 miles
Clouds Mostly Cloudy 9500 ft
Dew Point 42 °F
Humidity 62%
Rainfall 0.00 in
Snow Depth Not available.
UV 0 out of 12
Pollen 9.60 out of 12
Air Quality Not available.
Flu Activity Local Activity
METAR KSPS 210852Z AUTO 18010KT 10SM BKN095 13/06 A2997 RMK AO2 SLP141 T01280056 58007

More Conditions Fewer Conditions

10-Day Weather Forecast

Almanac

Astronomy

Apr. 21, 2015 Rise Set
Actual Time
Civil Twilight
Nautical Twilight
Astronomical Twilight
Moon
Length of Visible Light
Length of Day
Tomorrow will be .
, % of the Moon is Illuminated

Today's Extremes

State Highs State Lows

Community

WunderPhotos

Upload Photos

1,815,331 photos uploaded!

WunderBlogs® & News

Nearby

Air Quality

  Air Quality AQ Index Pollutant
Not available.

Snow Depth

Station Depth Elevation

Earthquake Activity

City Distance Mag. Time & Date
Minimum magnitude displayed is 2.5.

Coastal Water Temperatures

Place Temperature

Stations

Nearby Weather Stations

Station Location Temp. Windchill Dew Point Humidity Wind Precip. Elev Updated Type